sensor_id;sensor_type;location;lat;lon;timestamp;pressure;altitude;pressure_sealevel;temperature;humidity
1616;BME280;801;47.982;7.810;2022-11-11T03:31:32;100103.84;;;6.50;100.00
1616;BME280;801;47.982;7.810;2022-11-11T03:33:58;100114.13;;;6.46;100.00
1616;BME280;801;47.982;7.810;2022-11-11T03:36:42;100115.38;;;6.50;100.00
1616;BME280;801;47.982;7.810;2022-11-11T03:39:26;100121.88;;;6.34;100.00
1616;BME280;801;47.982;7.810;2022-11-11T03:41:53;100119.13;;;5.99;100.00
1616;BME280;801;47.982;7.810;2022-11-11T03:44:19;100120.75;;;6.00;100.00
1616;BME280;801;47.982;7.810;2022-11-11T03:46:47;100120.16;;;5.98;100.00
1616;BME280;801;47.982;7.810;2022-11-11T03:49:14;100120.16;;;5.98;100.00
1616;BME280;801;47.982;7.810;2022-11-11T03:51:40;100117.84;;;5.95;100.00
1616;BME280;801;47.982;7.810;2022-11-11T03:54:07;100121.44;;;6.09;100.00
1616;BME280;801;47.982;7.810;2022-11-11T03:56:33;100117.94;;;6.30;100.00
1616;BME280;801;47.982;7.810;2022-11-11T03:59:00;100117.56;;;6.40;100.00
1616;BME280;801;47.982;7.810;2022-11-11T04:01:26;100119.88;;;6.15;100.00
1616;BME280;801;47.982;7.810;2022-11-11T04:04:12;100117.47;;;6.27;100.00
1616;BME280;801;47.982;7.810;2022-11-11T04:06:56;100116.66;;;6.26;100.00
1616;BME280;801;47.982;7.810;2022-11-11T04:09:40;100113.59;;;6.29;100.00
1616;BME280;801;47.982;7.810;2022-11-11T04:12:25;100102.69;;;6.24;100.00
1616;BME280;801;47.982;7.810;2022-11-11T04:14:52;100100.56;;;6.13;100.00
1616;BME280;801;47.982;7.810;2022-11-11T04:17:36;100103.63;;;6.10;100.00
1616;BME280;801;47.982;7.810;2022-11-11T04:20:05;100094.34;;;6.06;100.00
1616;BME280;801;47.982;7.810;2022-11-11T04:22:49;100092.69;;;6.05;100.00
1616;BME280;801;47.982;7.810;2022-11-11T04:25:18;100098.47;;;6.08;100.00
1616;BME280;801;47.982;7.810;2022-11-11T04:28:02;100101.22;;;6.21;100.00
1616;BME280;801;47.982;7.810;2022-11-11T04:30:46;100095.22;;;6.13;100.00
1616;BME280;801;47.982;7.810;2022-11-11T04:33:13;100094.34;;;6.06;100.00
1616;BME280;801;47.982;7.810;2022-11-11T04:35:40;100091.03;;;6.03;100.00
1616;BME280;801;47.982;7.810;2022-11-11T04:38:07;100090.63;;;6.07;100.00
1616;BME280;801;47.982;7.810;2022-11-11T04:40:51;100084.03;;;6.02;100.00
1616;BME280;801;47.982;7.810;2022-11-11T04:43:30;100080.38;;;6.03;100.00
1616;BME280;801;47.982;7.810;2022-11-11T04:46:17;100081.13;;;5.97;100.00
1616;BME280;801;47.982;7.810;2022-11-11T04:48:42;100084.84;;;5.96;100.00
1616;BME280;801;47.982;7.810;2022-11-11T04:51:10;100081.53;;;5.94;100.00
1616;BME280;801;47.982;7.810;2022-11-11T04:53:37;100077.38;;;5.92;100.00
1616;BME280;801;47.982;7.810;2022-11-11T04:56:04;100086.19;;;5.92;100.00
1616;BME280;801;47.982;7.810;2022-11-11T04:58:47;100078.34;;;5.62;100.00
1616;BME280;801;47.982;7.810;2022-11-11T05:01:34;100061.63;;;5.11;100.00
1616;BME280;801;47.982;7.810;2022-11-11T05:04:18;100059.81;;;5.54;100.00
1616;BME280;801;47.982;7.810;2022-11-11T05:06:46;100073.28;;;5.68;100.00
1616;BME280;801;47.982;7.810;2022-11-11T05:09:30;100075.59;;;5.77;100.00
1616;BME280;801;47.982;7.810;2022-11-11T05:11:56;100075.47;;;5.86;100.00
1616;BME280;801;47.982;7.810;2022-11-11T05:14:23;100073.06;;;5.26;100.00
1616;BME280;801;47.982;7.810;2022-11-11T05:17:08;100085.75;;;5.24;100.00
1616;BME280;801;47.982;7.810;2022-11-11T05:19:53;100088.28;;;5.47;100.00
1616;BME280;801;47.982;7.810;2022-11-11T05:22:40;100102.19;;;5.43;100.00
1616;BME280;801;47.982;7.810;2022-11-11T05:25:07;100115.81;;;5.76;100.00
1616;BME280;801;47.982;7.810;2022-11-11T05:27:54;100135.44;;;5.90;100.00
1616;BME280;801;47.982;7.810;2022-11-11T05:30:22;100146.22;;;5.96;100.00
1616;BME280;801;47.982;7.810;2022-11-11T05:32:48;100148.50;;;5.85;100.00
1616;BME280;801;47.982;7.810;2022-11-11T05:35:16;100146.81;;;5.55;100.00
1616;BME280;801;47.982;7.810;2022-11-11T05:37:44;100146.97;;;5.32;100.00
1616;BME280;801;47.982;7.810;2022-11-11T05:40:33;100155.91;;;5.61;100.00
1616;BME280;801;47.982;7.810;2022-11-11T05:42:59;100167.97;;;5.78;100.00
1616;BME280;801;47.982;7.810;2022-11-11T05:45:26;100169.44;;;5.81;100.00
1616;BME280;801;47.982;7.810;2022-11-11T05:47:52;100169.03;;;5.84;100.00
1616;BME280;801;47.982;7.810;2022-11-11T05:50:19;100181.19;;;5.87;100.00
1616;BME280;801;47.982;7.810;2022-11-11T05:52:49;100175.16;;;5.99;100.00
1616;BME280;801;47.982;7.810;2022-11-11T05:55:16;100181.78;;;6.03;100.00
1616;BME280;801;47.982;7.810;2022-11-11T05:57:43;100185.66;;;6.01;100.00
1616;BME280;801;47.982;7.810;2022-11-11T06:00:10;100192.91;;;5.71;100.00
1616;BME280;801;47.982;7.810;2022-11-11T06:02:37;100198.56;;;5.97;100.00
1616;BME280;801;47.982;7.810;2022-11-11T06:05:04;100199.84;;;6.01;100.00
1616;BME280;801;47.982;7.810;2022-11-11T06:07:32;100207.84;;;6.01;100.00
1616;BME280;801;47.982;7.810;2022-11-11T06:09:59;100203.78;;;6.06;100.00
1616;BME280;801;47.982;7.810;2022-11-11T06:12:41;100200.22;;;5.98;100.00
1616;BME280;801;47.982;7.810;2022-11-11T06:15:26;100199.78;;;5.95;100.00
1616;BME280;801;47.982;7.810;2022-11-11T06:17:52;100201.22;;;5.97;100.00
1616;BME280;801;47.982;7.810;2022-11-11T06:20:19;100203.31;;;5.80;100.00
1616;BME280;801;47.982;7.810;2022-11-11T06:22:45;100195.22;;;5.74;100.00
1616;BME280;801;47.982;7.810;2022-11-11T06:25:23;100201.56;;;5.73;100.00
1616;BME280;801;47.982;7.810;2022-11-11T06:28:07;100206.56;;;5.82;100.00
1616;BME280;801;47.982;7.810;2022-11-11T06:30:34;100207.03;;;5.86;100.00
1616;BME280;801;47.982;7.810;2022-11-11T06:33:00;100210.09;;;5.83;100.00
1616;BME280;801;47.982;7.810;2022-11-11T06:35:27;100210.28;;;5.81;100.00
1616;BME280;801;47.982;7.810;2022-11-11T06:37:53;100210.22;;;5.75;100.00
1616;BME280;801;47.982;7.810;2022-11-11T06:40:20;100219.66;;;5.77;100.00
1616;BME280;801;47.982;7.810;2022-11-11T06:42:49;100216.75;;;5.72;100.00
1616;BME280;801;47.982;7.810;2022-11-11T06:45:16;100213.44;;;5.70;100.00
1616;BME280;801;47.982;7.810;2022-11-11T06:47:43;100226.22;;;5.75;100.00
1616;BME280;801;47.982;7.810;2022-11-11T06:50:09;100229.28;;;5.72;100.00
1616;BME280;801;47.982;7.810;2022-11-11T06:52:36;100220.63;;;5.70;100.00
1616;BME280;801;47.982;7.810;2022-11-11T06:55:03;100225.88;;;5.63;100.00
1616;BME280;801;47.982;7.810;2022-11-11T06:57:29;100224.44;;;5.60;100.00
1616;BME280;801;47.982;7.810;2022-11-11T06:59:57;100230.00;;;5.66;100.00
1616;BME280;801;47.982;7.810;2022-11-11T07:02:24;100228.00;;;5.68;100.00
1616;BME280;801;47.982;7.810;2022-11-11T07:04:50;100224.69;;;5.66;100.00
1616;BME280;801;47.982;7.810;2022-11-11T07:07:17;100230.00;;;5.66;100.00
1616;BME280;801;47.982;7.810;2022-11-11T07:09:43;100232.69;;;5.66;100.00
1616;BME280;801;47.982;7.810;2022-11-11T07:12:10;100232.88;;;5.64;100.00
1616;BME280;801;47.982;7.810;2022-11-11T07:14:36;100240.19;;;5.77;100.00
1616;BME280;801;47.982;7.810;2022-11-11T07:17:04;100236.88;;;5.75;100.00
1616;BME280;801;47.982;7.810;2022-11-11T07:19:30;100238.53;;;5.76;100.00
1616;BME280;801;47.982;7.810;2022-11-11T07:21:57;100243.28;;;5.95;100.00
1616;BME280;801;47.982;7.810;2022-11-11T07:24:23;100237.94;;;5.95;100.00
1616;BME280;801;47.982;7.810;2022-11-11T07:26:50;100243.06;;;6.12;100.00
1616;BME280;801;47.982;7.810;2022-11-11T07:29:16;100242.09;;;6.19;100.00
1616;BME280;801;47.982;7.810;2022-11-11T07:31:44;100240.63;;;6.17;100.00
1616;BME280;801;47.982;7.810;2022-11-11T07:34:12;100235.41;;;6.30;100.00
1616;BME280;801;47.982;7.810;2022-11-11T07:36:38;100235.66;;;6.14;100.00
1616;BME280;801;47.982;7.810;2022-11-11T07:39:05;100237.16;;;6.44;100.00
1616;BME280;801;47.982;7.810;2022-11-11T07:41:34;100232.91;;;6.50;100.00
1616;BME280;801;47.982;7.810;2022-11-11T07:44:01;100233.19;;;6.62;100.00
1616;BME280;801;47.982;7.810;2022-11-11T07:46:27;100238.97;;;6.37;100.00
1616;BME280;801;47.982;7.810;2022-11-11T07:48:54;100234.06;;;6.69;100.00
1616;BME280;801;47.982;7.810;2022-11-11T07:51:22;100240.53;;;6.81;100.00
1616;BME280;801;47.982;7.810;2022-11-11T07:53:48;100246.41;;;6.70;100.00
1616;BME280;801;47.982;7.810;2022-11-11T07:56:15;100246.63;;;7.03;100.00
1616;BME280;801;47.982;7.810;2022-11-11T07:58:41;100252.41;;;7.07;100.00
1616;BME280;801;47.982;7.810;2022-11-11T08:01:08;100246.38;;;6.98;100.00
1616;BME280;801;47.982;7.810;2022-11-11T08:03:35;100250.84;;;7.19;100.00
1616;BME280;801;47.982;7.810;2022-11-11T08:06:13;100257.66;;;6.94;100.00
1616;BME280;801;47.982;7.810;2022-11-11T08:08:41;100256.19;;;7.19;100.00
1616;BME280;801;47.982;7.810;2022-11-11T08:11:08;100266.56;;;7.36;100.00
1616;BME280;801;47.982;7.810;2022-11-11T08:13:34;100263.03;;;7.28;100.00
1616;BME280;801;47.982;7.810;2022-11-11T08:16:06;100268.78;;;7.32;100.00
1616;BME280;801;47.982;7.810;2022-11-11T08:18:33;100268.56;;;7.27;100.00
1616;BME280;801;47.982;7.810;2022-11-11T08:21:00;100277.50;;;7.06;100.00
1616;BME280;801;47.982;7.810;2022-11-11T08:23:27;100273.66;;;6.87;100.00
1616;BME280;801;47.982;7.810;2022-11-11T08:26:00;100268.84;;;6.76;100.00
1616;BME280;801;47.982;7.810;2022-11-11T08:28:27;100260.91;;;6.54;100.00
1616;BME280;801;47.982;7.810;2022-11-11T08:30:53;100260.38;;;6.44;100.00
1616;BME280;801;47.982;7.810;2022-11-11T08:33:20;100251.50;;;6.37;100.00
1616;BME280;801;47.982;7.810;2022-11-11T08:35:47;100266.94;;;6.41;100.00
1616;BME280;801;47.982;7.810;2022-11-11T08:38:13;100257.19;;;6.55;100.00
1616;BME280;801;47.982;7.810;2022-11-11T08:40:40;100261.41;;;6.43;100.00
1616;BME280;801;47.982;7.810;2022-11-11T08:43:08;100259.94;;;6.40;100.00
1616;BME280;801;47.982;7.810;2022-11-11T08:45:35;100263.50;;;6.26;100.00
1616;BME280;801;47.982;7.810;2022-11-11T08:48:01;100263.25;;;6.21;100.00
1616;BME280;801;47.982;7.810;2022-11-11T08:50:28;100269.84;;;6.25;100.00
1616;BME280;801;47.982;7.810;2022-11-11T08:52:55;100267.06;;;6.33;100.00
1616;BME280;801;47.982;7.810;2022-11-11T08:55:22;100268.28;;;6.31;100.00
1616;BME280;801;47.982;7.810;2022-11-11T08:57:56;100267.19;;;6.47;100.00
1616;BME280;801;47.982;7.810;2022-11-11T09:00:24;100265.50;;;6.67;100.00
1616;BME280;801;47.982;7.810;2022-11-11T09:02:51;100266.13;;;6.69;100.00
1616;BME280;801;47.982;7.810;2022-11-11T09:05:18;100266.75;;;6.71;100.00
1616;BME280;801;47.982;7.810;2022-11-11T09:07:45;100271.09;;;6.72;100.00
1616;BME280;801;47.982;7.810;2022-11-11T09:10:12;100272.94;;;7.00;100.00
1616;BME280;801;47.982;7.810;2022-11-11T09:12:38;100270.84;;;6.95;100.00
1616;BME280;801;47.982;7.810;2022-11-11T09:15:05;100271.78;;;7.16;100.00
1616;BME280;801;47.982;7.810;2022-11-11T09:17:33;100272.06;;;7.27;100.00
1616;BME280;801;47.982;7.810;2022-11-11T09:20:00;100267.81;;;7.40;100.00
1616;BME280;801;47.982;7.810;2022-11-11T09:22:26;100276.97;;;7.65;100.00
1616;BME280;801;47.982;7.810;2022-11-11T09:24:53;100278.25;;;7.83;100.00
1616;BME280;801;47.982;7.810;2022-11-11T09:27:20;100271.53;;;8.00;100.00
1616;BME280;801;47.982;7.810;2022-11-11T09:29:47;100275.28;;;8.26;100.00
1616;BME280;801;47.982;7.810;2022-11-11T09:32:14;100276.31;;;8.25;100.00
1616;BME280;801;47.982;7.810;2022-11-11T09:34:42;100266.66;;;8.44;100.00
1616;BME280;801;47.982;7.810;2022-11-11T09:37:09;100267.72;;;8.49;100.00
1616;BME280;801;47.982;7.810;2022-11-11T09:39:35;100270.59;;;8.41;100.00
1616;BME280;801;47.982;7.810;2022-11-11T09:42:10;100266.47;;;8.59;100.00
1616;BME280;801;47.982;7.810;2022-11-11T09:45:01;100267.28;;;8.66;100.00
1616;BME280;801;47.982;7.810;2022-11-11T09:47:36;100262.97;;;8.58;100.00
1616;BME280;801;47.982;7.810;2022-11-11T09:50:09;100264.00;;;8.64;100.00
1616;BME280;801;47.982;7.810;2022-11-11T09:52:40;100262.75;;;8.86;100.00
1616;BME280;801;47.982;7.810;2022-11-11T09:55:14;100266.00;;;9.08;100.00
1616;BME280;801;47.982;7.810;2022-11-11T09:57:47;100274.81;;;9.42;100.00
1616;BME280;801;47.982;7.810;2022-11-11T10:00:17;100270.25;;;9.43;100.00
1616;BME280;801;47.982;7.810;2022-11-11T10:02:49;100271.31;;;9.28;100.00
1616;BME280;801;47.982;7.810;2022-11-11T10:05:21;100265.25;;;9.53;100.00
1616;BME280;801;47.982;7.810;2022-11-11T10:07:53;100257.09;;;9.21;100.00
1616;BME280;801;47.982;7.810;2022-11-11T10:10:28;100255.44;;;9.79;100.00
1616;BME280;801;47.982;7.810;2022-11-11T10:12:56;100247.16;;;9.87;100.00
1616;BME280;801;47.982;7.810;2022-11-11T10:15:26;100244.81;;;10.29;100.00
1616;BME280;801;47.982;7.810;2022-11-11T10:18:13;100243.56;;;10.25;100.00
1616;BME280;801;47.982;7.810;2022-11-11T10:20:47;100240.88;;;10.25;100.00
1616;BME280;801;47.982;7.810;2022-11-11T10:23:20;100244.28;;;10.13;100.00
1616;BME280;801;47.982;7.810;2022-11-11T10:25:52;100241.44;;;10.08;100.00
1616;BME280;801;47.982;7.810;2022-11-11T10:28:21;100235.34;;;10.76;100.00
1616;BME280;801;47.982;7.810;2022-11-11T10:30:50;100231.84;;;10.19;100.00
1616;BME280;801;47.982;7.810;2022-11-11T10:33:19;100234.78;;;10.49;100.00
1616;BME280;801;47.982;7.810;2022-11-11T10:35:52;100231.03;;;10.94;100.00
1616;BME280;801;47.982;7.810;2022-11-11T10:38:29;100223.78;;;10.51;100.00
1616;BME280;801;47.982;7.810;2022-11-11T10:41:04;100214.63;;;10.58;100.00
1616;BME280;801;47.982;7.810;2022-11-11T10:43:34;100219.84;;;10.97;100.00
1616;BME280;801;47.982;7.810;2022-11-11T10:46:02;100216.66;;;11.55;100.00
1616;BME280;801;47.982;7.810;2022-11-11T10:48:38;100218.88;;;11.77;100.00
1616;BME280;801;47.982;7.810;2022-11-11T10:51:09;100222.94;;;11.49;100.00
1616;BME280;801;47.982;7.810;2022-11-11T10:53:40;100216.19;;;11.77;100.00
1616;BME280;801;47.982;7.810;2022-11-11T10:56:14;100217.47;;;11.56;100.00
1616;BME280;801;47.982;7.810;2022-11-11T10:58:47;100215.66;;;11.19;100.00
1616;BME280;801;47.982;7.810;2022-11-11T11:01:20;100214.59;;;10.84;100.00
1616;BME280;801;47.982;7.810;2022-11-11T11:03:56;100213.06;;;11.43;100.00
1616;BME280;801;47.982;7.810;2022-11-11T11:06:27;100205.59;;;11.45;100.00
1616;BME280;801;47.982;7.810;2022-11-11T11:08:58;100209.09;;;11.94;100.00
1616;BME280;801;47.982;7.810;2022-11-11T11:11:30;100201.41;;;12.10;100.00
1616;BME280;801;47.982;7.810;2022-11-11T11:13:59;100195.69;;;12.06;100.00
1616;BME280;801;47.982;7.810;2022-11-11T11:16:30;100199.00;;;12.32;100.00
1616;BME280;801;47.982;7.810;2022-11-11T11:19:18;100201.94;;;12.30;100.00
1616;BME280;801;47.982;7.810;2022-11-11T11:21:52;100198.66;;;12.63;100.00
1616;BME280;801;47.982;7.810;2022-11-11T11:24:21;100195.59;;;12.83;100.00
1616;BME280;801;47.982;7.810;2022-11-11T11:26:49;100190.75;;;13.21;100.00
1616;BME280;801;47.982;7.810;2022-11-11T11:29:24;100189.59;;;13.86;100.00
1616;BME280;801;47.982;7.810;2022-11-11T11:31:51;100192.66;;;14.23;100.00
1616;BME280;801;47.982;7.810;2022-11-11T11:34:18;100190.66;;;13.85;100.00
1616;BME280;801;47.982;7.810;2022-11-11T11:36:58;100196.50;;;13.65;100.00
1616;BME280;801;47.982;7.810;2022-11-11T11:39:32;100199.31;;;13.70;100.00
1616;BME280;801;47.982;7.810;2022-11-11T11:41:59;100203.66;;;13.71;100.00
1616;BME280;801;47.982;7.810;2022-11-11T11:44:26;100199.94;;;13.60;100.00
1616;BME280;801;47.982;7.810;2022-11-11T11:47:02;100197.69;;;13.69;100.00
1616;BME280;801;47.982;7.810;2022-11-11T11:49:43;100195.25;;;13.84;100.00
1616;BME280;801;47.982;7.810;2022-11-11T11:52:20;100193.44;;;13.73;100.00
1616;BME280;801;47.982;7.810;2022-11-11T11:54:55;100191.28;;;13.75;100.00
1616;BME280;801;47.982;7.810;2022-11-11T11:57:32;100189.16;;;13.77;100.00
1616;BME280;801;47.982;7.810;2022-11-11T12:00:03;100190.31;;;13.81;100.00
1616;BME280;801;47.982;7.810;2022-11-11T12:02:49;100191.47;;;13.85;100.00
1616;BME280;801;47.982;7.810;2022-11-11T12:05:25;100184.56;;;14.23;100.00
1616;BME280;801;47.982;7.810;2022-11-11T12:08:17;100190.72;;;14.69;100.00
1616;BME280;801;47.982;7.810;2022-11-11T12:10:56;100183.50;;;14.41;100.00
1616;BME280;801;47.982;7.810;2022-11-11T12:13:33;100183.66;;;14.35;100.00
1616;BME280;801;47.982;7.810;2022-11-11T12:16:13;100195.69;;;14.44;100.00
1616;BME280;801;47.982;7.810;2022-11-11T12:18:54;100192.81;;;14.50;100.00
1616;BME280;801;47.982;7.810;2022-11-11T12:21:32;100187.44;;;14.33;100.00
1616;BME280;801;47.982;7.810;2022-11-11T12:24:12;100191.03;;;14.22;100.00
1616;BME280;801;47.982;7.810;2022-11-11T12:26:54;100186.59;;;14.50;100.00
1616;BME280;801;47.982;7.810;2022-11-11T12:29:37;100181.03;;;14.73;100.00
1616;BME280;801;47.982;7.810;2022-11-11T12:32:27;100186.69;;;14.72;100.00
1616;BME280;801;47.982;7.810;2022-11-11T12:35:16;100180.31;;;14.61;100.00
1616;BME280;801;47.982;7.810;2022-11-11T12:37:54;100174.81;;;14.56;100.00
1616;BME280;801;47.982;7.810;2022-11-11T12:40:35;100170.13;;;14.51;100.00
1616;BME280;801;47.982;7.810;2022-11-11T12:43:14;100162.50;;;14.65;100.00
1616;BME280;801;47.982;7.810;2022-11-11T12:45:47;100164.63;;;14.46;100.00
1616;BME280;801;47.982;7.810;2022-11-11T12:51:14;100162.59;;;14.92;100.00
1616;BME280;801;47.982;7.810;2022-11-11T12:53:51;100160.41;;;14.89;100.00
1616;BME280;801;47.982;7.810;2022-11-11T12:56:30;100154.78;;;15.18;100.00
1616;BME280;801;47.982;7.810;2022-11-11T12:59:04;100152.91;;;14.58;100.00
1616;BME280;801;47.982;7.810;2022-11-11T13:01:45;100147.53;;;14.80;100.00
1616;BME280;801;47.982;7.810;2022-11-11T13:04:28;100143.69;;;15.69;100.00
1616;BME280;801;47.982;7.810;2022-11-11T13:07:20;100142.50;;;16.14;100.00
1616;BME280;801;47.982;7.810;2022-11-11T13:10:02;100154.72;;;15.84;100.00
1616;BME280;801;47.982;7.810;2022-11-11T13:12:43;100146.81;;;15.77;100.00
1616;BME280;801;47.982;7.810;2022-11-11T13:15:14;100141.72;;;15.86;100.00
1616;BME280;801;47.982;7.810;2022-11-11T13:17:42;100137.78;;;15.99;100.00
1616;BME280;801;47.982;7.810;2022-11-11T13:20:18;100135.53;;;15.64;100.00
1616;BME280;801;47.982;7.810;2022-11-11T13:22:48;100138.28;;;15.69;100.00
1616;BME280;801;47.982;7.810;2022-11-11T13:25:18;100140.22;;;15.46;100.00
1616;BME280;801;47.982;7.810;2022-11-11T13:27:50;100134.44;;;15.38;100.00
1616;BME280;801;47.982;7.810;2022-11-11T13:30:35;100139.34;;;14.91;100.00
1616;BME280;801;47.982;7.810;2022-11-11T13:33:06;100145.38;;;15.21;100.00
1616;BME280;801;47.982;7.810;2022-11-11T13:35:35;100146.44;;;15.20;100.00
1616;BME280;801;47.982;7.810;2022-11-11T13:38:05;100136.16;;;15.22;100.00
1616;BME280;801;47.982;7.810;2022-11-11T13:40:35;100132.50;;;15.11;100.00
1616;BME280;801;47.982;7.810;2022-11-11T13:43:05;100137.25;;;14.60;100.00
1616;BME280;801;47.982;7.810;2022-11-11T13:45:42;100137.59;;;14.63;100.00
1616;BME280;801;47.982;7.810;2022-11-11T13:48:20;100135.22;;;14.89;100.00
1616;BME280;801;47.982;7.810;2022-11-11T13:50:48;100143.16;;;14.73;100.00
1616;BME280;801;47.982;7.810;2022-11-11T13:53:25;100135.75;;;14.69;100.00
1616;BME280;801;47.982;7.810;2022-11-11T13:55:53;100143.41;;;14.55;100.00
1616;BME280;801;47.982;7.810;2022-11-11T13:58:29;100136.25;;;14.83;100.00
1616;BME280;801;47.982;7.810;2022-11-11T14:00:58;100139.19;;;14.81;100.00
1616;BME280;801;47.982;7.810;2022-11-11T14:03:32;100143.59;;;14.87;100.00
1616;BME280;801;47.982;7.810;2022-11-11T14:06:28;100140.25;;;15.02;100.00
1616;BME280;801;47.982;7.810;2022-11-11T14:08:56;100148.75;;;15.11;100.00
1616;BME280;801;47.982;7.810;2022-11-11T14:11:28;100140.72;;;15.16;100.00
1616;BME280;801;47.982;7.810;2022-11-11T14:13:58;100140.81;;;15.26;100.00
1616;BME280;801;47.982;7.810;2022-11-11T14:16:59;100150.13;;;15.35;100.00
1616;BME280;801;47.982;7.810;2022-11-11T14:19:27;100156.50;;;15.24;100.00
1616;BME280;801;47.982;7.810;2022-11-11T14:21:57;100150.25;;;15.46;100.00
1616;BME280;801;47.982;7.810;2022-11-11T14:24:28;100154.38;;;15.53;100.00
1616;BME280;801;47.982;7.810;2022-11-11T14:26:57;100149.94;;;15.42;100.00
1616;BME280;801;47.982;7.810;2022-11-11T14:29:30;100152.81;;;15.85;100.00
1616;BME280;801;47.982;7.810;2022-11-11T14:32:14;100157.44;;;15.35;100.00
1616;BME280;801;47.982;7.810;2022-11-11T14:34:59;100156.91;;;15.60;100.00
1616;BME280;801;47.982;7.810;2022-11-11T14:37:45;100159.09;;;15.14;100.00
1616;BME280;801;47.982;7.810;2022-11-11T14:40:23;100154.31;;;15.21;100.00
1616;BME280;801;47.982;7.810;2022-11-11T14:42:50;100153.88;;;15.07;100.00
1616;BME280;801;47.982;7.810;2022-11-11T14:48:58;100145.28;;;15.15;100.00
1616;BME280;801;47.982;7.810;2022-11-11T14:51:45;100146.28;;;14.65;100.00
1616;BME280;801;47.982;7.810;2022-11-11T14:54:21;100155.50;;;15.08;100.00
1616;BME280;801;47.982;7.810;2022-11-11T14:56:55;100152.94;;;15.19;100.00
1616;BME280;801;47.982;7.810;2022-11-11T14:59:24;100152.34;;;14.56;100.00
1616;BME280;801;47.982;7.810;2022-11-11T15:01:53;100156.69;;;14.73;100.00
1616;BME280;801;47.982;7.810;2022-11-11T15:04:22;100161.69;;;14.48;100.00
1616;BME280;801;47.982;7.810;2022-11-11T15:06:52;100163.88;;;14.51;100.00
1616;BME280;801;47.982;7.810;2022-11-11T15:09:39;100165.97;;;14.27;100.00
1616;BME280;801;47.982;7.810;2022-11-11T15:12:21;100160.63;;;14.15;100.00
1616;BME280;801;47.982;7.810;2022-11-11T15:14:59;100169.97;;;14.07;100.00
1616;BME280;801;47.982;7.810;2022-11-11T15:17:36;100170.31;;;13.65;100.00
1616;BME280;801;47.982;7.810;2022-11-11T15:20:21;100172.47;;;13.80;100.00
1616;BME280;801;47.982;7.810;2022-11-11T15:22:56;100173.25;;;13.64;100.00
1616;BME280;801;47.982;7.810;2022-11-11T15:25:35;100173.75;;;13.61;100.00
1616;BME280;801;47.982;7.810;2022-11-11T15:28:12;100169.78;;;13.52;100.00
1616;BME280;801;47.982;7.810;2022-11-11T15:30:55;100178.38;;;13.48;100.00
1616;BME280;801;47.982;7.810;2022-11-11T15:33:34;100176.28;;;13.39;100.00
1616;BME280;801;47.982;7.810;2022-11-11T15:36:14;100182.41;;;13.34;100.00
1616;BME280;801;47.982;7.810;2022-11-11T15:38:42;100172.78;;;13.15;100.00
1616;BME280;801;47.982;7.810;2022-11-11T15:41:20;100181.06;;;12.96;100.00
1616;BME280;801;47.982;7.810;2022-11-11T15:43:48;100183.88;;;12.90;100.00
1616;BME280;801;47.982;7.810;2022-11-11T15:46:21;100184.66;;;13.14;100.00
1616;BME280;801;47.982;7.810;2022-11-11T15:48:49;100189.72;;;13.10;100.00
1616;BME280;801;47.982;7.810;2022-11-11T15:51:26;100186.69;;;12.95;100.00
1616;BME280;801;47.982;7.810;2022-11-11T15:54:08;100189.38;;;13.06;100.00
1616;BME280;801;47.982;7.810;2022-11-11T15:56:34;100187.97;;;12.92;100.00
1616;BME280;801;47.982;7.810;2022-11-11T15:59:14;100187.53;;;12.95;100.00
1616;BME280;801;47.982;7.810;2022-11-11T16:01:41;100188.00;;;12.69;100.00
1616;BME280;801;47.982;7.810;2022-11-11T16:04:09;100179.69;;;12.58;100.00
1616;BME280;801;47.982;7.810;2022-11-11T16:06:43;100190.00;;;12.38;100.00
1616;BME280;801;47.982;7.810;2022-11-11T16:09:12;100184.13;;;12.29;100.00
1616;BME280;801;47.982;7.810;2022-11-11T16:11:40;100184.59;;;12.26;100.00
1616;BME280;801;47.982;7.810;2022-11-11T16:14:13;100186.00;;;12.29;100.00
1616;BME280;801;47.982;7.810;2022-11-11T16:16:42;100193.03;;;12.30;100.00
1616;BME280;801;47.982;7.810;2022-11-11T16:19:26;100180.09;;;12.08;100.00
1616;BME280;801;47.982;7.810;2022-11-11T16:22:01;100179.97;;;11.73;100.00
1616;BME280;801;47.982;7.810;2022-11-11T16:24:32;100179.41;;;11.82;100.00
1616;BME280;801;47.982;7.810;2022-11-11T16:27:01;100171.22;;;11.77;100.00
1616;BME280;801;47.982;7.810;2022-11-11T16:29:33;100166.47;;;11.61;100.00
1616;BME280;801;47.982;7.810;2022-11-11T16:32:15;100166.59;;;11.66;100.00
1616;BME280;801;47.982;7.810;2022-11-11T16:34:43;100172.94;;;11.72;100.00
1616;BME280;801;47.982;7.810;2022-11-11T16:37:12;100180.28;;;11.64;100.00
1616;BME280;801;47.982;7.810;2022-11-11T16:39:41;100188.03;;;11.42;100.00
1616;BME280;801;47.982;7.810;2022-11-11T16:42:16;100183.81;;;11.16;100.00
1616;BME280;801;47.982;7.810;2022-11-11T16:44:48;100176.84;;;11.09;100.00
1616;BME280;801;47.982;7.810;2022-11-11T16:47:46;100185.06;;;11.14;100.00
1616;BME280;801;47.982;7.810;2022-11-11T16:50:15;100183.66;;;11.11;100.00
1616;BME280;801;47.982;7.810;2022-11-11T16:52:49;100176.41;;;10.93;100.00
1616;BME280;801;47.982;7.810;2022-11-11T16:55:21;100183.72;;;11.05;100.00
1616;BME280;801;47.982;7.810;2022-11-11T16:57:49;100189.25;;;10.91;100.00
1616;BME280;801;47.982;7.810;2022-11-11T17:00:18;100184.00;;;10.78;100.00
1616;BME280;801;47.982;7.810;2022-11-11T17:02:45;100183.59;;;10.81;100.00
1616;BME280;801;47.982;7.810;2022-11-11T17:05:12;100180.97;;;10.74;100.00
1616;BME280;801;47.982;7.810;2022-11-11T17:07:40;100181.63;;;10.70;100.00
1616;BME280;801;47.982;7.810;2022-11-11T17:10:18;100187.16;;;10.75;100.00
1616;BME280;801;47.982;7.810;2022-11-11T17:12:45;100187.75;;;10.77;100.00
1616;BME280;801;47.982;7.810;2022-11-11T17:15:15;100174.72;;;10.55;100.00
1616;BME280;801;47.982;7.810;2022-11-11T17:17:43;100173.31;;;10.53;100.00
1616;BME280;801;47.982;7.810;2022-11-11T17:20:12;100184.19;;;10.39;100.00
1616;BME280;801;47.982;7.810;2022-11-11T17:22:45;100173.69;;;10.31;100.00